Sunday, October 21, 2018, 7:42 PM EDT
Back to Local

KASH, Nashua, Boire Field Airport

Location: Nashua, NH, United States Lat: 42.782
Local Time: 7:42 PM EDT (23:42 GMT) Lon: -71.515
Time Zone: US/Eastern Elev: 200 ft

Show me the last for .
Show Decoded

2018-10-21 18:56 METAR KASH 212256Z 32014G19KT 10SM FEW050 03/M08 A2998 RMK AO2 SLP163 T00331078
                 =
2018-10-21 17:56 METAR KASH 212156Z 32013G18KT 10SM SCT049 04/M07 A2994 RMK AO2 PRESRR SLP152
                 T00441072 =
2018-10-21 16:56 METAR KASH 212056Z 32020G30KT 10SM SCT049 06/M08 A2989 RMK AO2 SLP134 T00561078
                 51020 =
2018-10-21 15:56 METAR KASH 211956Z 31018G31KT 10SM SCT049 06/M07 A2988 RMK AO2 SLP128 T00561067
                 =
2018-10-21 14:56 METAR KASH 211856Z 31019G27KT 10SM BKN049 07/M06 A2986 RMK AO2 SLP123 T00671056
                 =
2018-10-21 13:56 METAR KASH 211756Z 31018G27KT 10SM BKN049 07/M06 A2983 RMK AO2 SLP115 T00721056
                 10072 20056 51006 =
2018-10-21 12:56 METAR KASH 211656Z 32016G26KT 10SM BKN040 06/M03 A2983 RMK AO2 PK WND 30026/1647
                 SLP113 T00561028 =
2018-10-21 11:56 METAR KASH 211556Z 33016G24KT 10SM BKN044 06/M04 A2983 RMK AO2 PK WND 32028/1508
                 SLP112 T00611039 =
2018-10-21 10:56 METAR KASH 211456Z 32015G23KT 10SM BKN044 06/M03 A2982 RMK AO2 PK WND 33026/1417
                 SLP109 T00611033 51030 =
2018-10-21 09:56 METAR KASH 211356Z 33017G27KT 10SM FEW120 06/M03 A2980 RMK AO2 PK WND 32027/1355
                 SLP103 T00561033 =
2018-10-21 08:56 METAR KASH 211256Z COR 33011G18KT 10SM FEW035 BKN095 OVC110 07/M01 A2977 RMK AO2
                 SLP091 T00671011 =
2018-10-21 07:56 METAR KASH 211156Z 33010KT 10SM OVC048 07/01 A2973 RMK AO2 RAE20 SLP078 P0000
                 60000 T00720006 10089 20056 53037 =
2018-10-21 06:56 METAR KASH 211056Z 33008KT 10SM -RA OVC046 07/02 A2968 RMK AO2 RAB09 SLP061
                 P0000 T00670017 =
2018-10-21 05:56 METAR KASH 210956Z AUTO 32009KT 10SM FEW050 BKN065 OVC085 08/M01 A2965 RMK AO2
                 SLP052 T00831006 =
2018-10-21 04:56 METAR KASH 210856Z AUTO 33009KT 10SM OVC080 08/01 A2962 RMK AO2 SLP040 T00830006
                 53010 =
2018-10-21 03:56 METAR KASH 210756Z AUTO 32009KT 10SM OVC080 08/02 A2959 RMK AO2 SLP031 T00830017
                 =
2018-10-21 02:56 METAR KASH 210656Z AUTO 31005KT 10SM CLR 06/05 A2957 RMK AO2 SLP026 T00610050 =
2018-10-21 01:56 METAR KASH 210556Z AUTO 32004KT 10SM OVC100 07/06 A2959 RMK AO2 SLP030 T00720056
                 10106 20067 55000 =
2018-10-21 00:56 METAR KASH 210456Z AUTO 00000KT 10SM OVC100 07/06 A2958 RMK AO2 SLP029 T00670061
                 401720067 =
2018-10-20 23:56 METAR KASH 210356Z AUTO 30004KT 10SM OVC100 07/06 A2958 RMK AO2 SLP029 T00720061
                 =
2018-10-20 22:56 METAR KASH 210256Z AUTO 00000KT 10SM OVC095 07/06 A2959 RMK AO2 SLP031 T00670056
                 53006 =
2018-10-20 21:56 METAR KASH 210156Z AUTO 33004KT 10SM BKN095 07/06 A2958 RMK AO2 SLP029 T00720061
                 =
2018-10-20 20:56 METAR KASH 210056Z 00000KT 10SM CLR 08/06 A2957 RMK AO2 SLP025 T00830061 =
2018-10-20 19:56 METAR KASH 202356Z COR VRB03KT 10SM SCT100 11/07 A2957 RMK AO2 SLP024 T01060067
                 10172 20106 53005 =

Support USWX by starting your Amazon purchase here.